createdAt,value
2019-03-16T00:01:13.139Z,2.52
2019-03-16T00:11:13.200Z,1.81
2019-03-16T00:21:13.128Z,2.05
2019-03-16T00:31:13.232Z,1.99
2019-03-16T00:41:13.255Z,2.60
2019-03-16T00:51:13.094Z,2.36
2019-03-16T01:01:13.127Z,2.81
2019-03-16T01:11:13.200Z,1.93
2019-03-16T01:21:13.160Z,2.24
2019-03-16T01:31:13.266Z,2.03
2019-03-16T01:41:14.912Z,1.19
2019-03-16T01:51:13.169Z,1.48
2019-03-16T02:01:13.162Z,2.59
2019-03-16T02:11:13.170Z,2.67
2019-03-16T02:21:13.131Z,2.40
2019-03-16T02:31:13.155Z,2.38
2019-03-16T02:41:13.255Z,2.01
2019-03-16T02:51:13.172Z,1.33
2019-03-16T03:01:13.171Z,1.21
2019-03-16T03:11:13.275Z,0.99
2019-03-16T03:21:13.179Z,0.88
2019-03-16T03:31:13.130Z,0.96
2019-03-16T03:41:13.016Z,0.94
2019-03-16T03:51:13.003Z,1.32
2019-03-16T04:01:13.081Z,1.96
2019-03-16T04:11:13.024Z,3.93
2019-03-16T04:21:13.105Z,4.05
2019-03-16T04:31:13.121Z,5.83
2019-03-16T04:41:13.160Z,6.51
2019-03-16T04:51:13.136Z,5.76
2019-03-16T05:01:13.195Z,5.50
2019-03-16T05:11:13.155Z,5.87
2019-03-16T05:21:13.151Z,7.29
2019-03-16T05:31:13.245Z,6.31
2019-03-16T05:41:13.178Z,5.65
2019-03-16T05:51:13.179Z,5.20
2019-03-16T06:01:13.174Z,5.61
2019-03-16T06:11:13.252Z,6.14
2019-03-16T06:21:13.127Z,6.04
2019-03-16T06:31:13.107Z,6.76
2019-03-16T06:41:13.103Z,6.18
2019-03-16T06:51:13.153Z,4.88
2019-03-16T07:01:13.168Z,5.28
2019-03-16T07:11:13.183Z,5.90
2019-03-16T07:21:13.200Z,5.27
2019-03-16T07:31:13.093Z,6.65
2019-03-16T07:41:13.171Z,6.77
2019-03-16T07:51:13.037Z,7.07
2019-03-16T08:01:13.034Z,6.13
2019-03-16T08:11:13.131Z,6.54
2019-03-16T08:21:13.109Z,7.63
2019-03-16T08:31:13.139Z,6.61
2019-03-16T08:41:13.217Z,7.13
2019-03-16T08:51:13.182Z,5.92
2019-03-16T09:01:13.080Z,4.61
2019-03-16T09:11:13.077Z,5.63
2019-03-16T09:21:13.009Z,6.10
2019-03-16T09:31:13.088Z,5.85
2019-03-16T09:41:13.068Z,6.35
2019-03-16T09:51:13.141Z,8.20
2019-03-16T10:01:15.355Z,7.52
2019-03-16T10:11:13.092Z,8.85
2019-03-16T10:21:13.036Z,10.47
2019-03-16T10:31:13.154Z,7.83
2019-03-16T10:41:13.125Z,6.57
2019-03-16T10:51:13.092Z,8.18
2019-03-16T11:01:13.067Z,7.67
2019-03-16T11:11:13.091Z,7.48
2019-03-16T11:21:13.115Z,7.95
2019-03-16T11:31:13.127Z,6.77
2019-03-16T11:41:13.076Z,7.77
2019-03-16T11:51:13.071Z,8.22
2019-03-16T12:01:13.058Z,6.93
2019-03-16T12:11:13.037Z,7.81
2019-03-16T12:21:13.036Z,7.10
2019-03-16T12:31:12.988Z,7.41
2019-03-16T12:41:13.053Z,7.40
2019-03-16T12:51:13.130Z,7.52
2019-03-16T13:01:13.303Z,6.73
2019-03-16T13:11:13.042Z,6.90
2019-03-16T13:21:13.122Z,7.51
2019-03-16T13:31:12.999Z,6.64
2019-03-16T13:41:13.058Z,8.14
2019-03-16T13:51:13.123Z,7.36
2019-03-16T14:01:12.893Z,7.98
2019-03-16T14:11:13.043Z,7.18
2019-03-16T14:21:13.102Z,6.76
2019-03-16T14:31:13.017Z,6.32
2019-03-16T14:41:13.073Z,6.76
2019-03-16T14:51:13.101Z,6.41
2019-03-16T15:01:13.423Z,6.77
2019-03-16T15:11:16.020Z,7.28
2019-03-16T15:21:13.034Z,6.35
2019-03-16T15:31:13.126Z,6.23
2019-03-16T15:41:12.974Z,5.99
2019-03-16T15:51:13.044Z,6.58
2019-03-16T16:01:12.938Z,6.93
2019-03-16T16:11:13.003Z,7.21
2019-03-16T16:21:12.982Z,5.29
2019-03-16T16:31:16.491Z,6.75
2019-03-16T16:41:13.074Z,6.35
2019-03-16T16:51:13.003Z,5.15
2019-03-16T17:01:12.997Z,5.74
2019-03-16T17:11:13.047Z,6.05
2019-03-16T17:21:13.031Z,6.22
2019-03-16T17:31:13.041Z,6.15
2019-03-16T17:41:13.152Z,6.16
2019-03-16T17:51:12.966Z,5.86
2019-03-16T18:01:12.995Z,7.41
2019-03-16T18:11:12.958Z,5.39
2019-03-16T18:21:13.042Z,5.18
2019-03-16T18:31:12.990Z,5.40
2019-03-16T18:41:13.116Z,4.33
2019-03-16T18:51:13.004Z,4.31
2019-03-16T19:01:13.154Z,6.82
2019-03-16T19:11:13.004Z,6.48
2019-03-16T19:21:13.063Z,6.70
2019-03-16T19:31:13.010Z,5.72
2019-03-16T19:41:12.946Z,5.51
2019-03-16T19:51:12.990Z,5.77
2019-03-16T20:01:13.006Z,6.53
2019-03-16T20:11:12.884Z,5.43
2019-03-16T20:21:12.966Z,5.82
2019-03-16T20:31:12.963Z,6.19
2019-03-16T20:41:12.946Z,5.88
2019-03-16T20:51:13.003Z,7.58
2019-03-16T21:01:13.139Z,6.40
2019-03-16T21:11:12.932Z,7.00
2019-03-16T21:21:13.150Z,6.68
2019-03-16T21:31:12.908Z,5.76
2019-03-16T21:41:13.025Z,5.61
2019-03-16T21:51:12.957Z,7.29
2019-03-16T22:01:12.964Z,6.65
2019-03-16T22:11:13.068Z,6.67
2019-03-16T22:21:12.963Z,6.84
2019-03-16T22:31:13.075Z,7.36
2019-03-16T22:41:13.580Z,7.87
2019-03-16T22:51:12.997Z,7.26
2019-03-16T23:01:12.855Z,6.48
2019-03-16T23:11:13.050Z,6.78
2019-03-16T23:21:12.986Z,6.74
2019-03-16T23:31:12.925Z,7.79
2019-03-16T23:41:12.931Z,6.92
2019-03-16T23:51:13.034Z,7.01
